Time;durP1;ratioP1;P1;durP2;ratioP2;P2;SDS_P1;SDS_P2;PMS_P1;PMS_P2;Temp;Humidity;BMP_temperature;BMP_pressure;BME280_temperature;BME280_humidity;BME280_pressure;Samples;Min_cycle;Max_cycle;Signal;HPM_P1;HPM_P2
2023/07/20 00:02:02;;;;;;;3.85;3.20;;;16.40;99.90;;;;;;4987617;28;20105;-87
2023/07/20 00:04:28;;;;;;;5.20;3.30;;;16.30;99.90;;;;;;5038647;28;20039;-87
2023/07/20 00:06:54;;;;;;;4.90;3.50;;;16.30;99.90;;;;;;5036070;28;20047;-87
2023/07/20 00:09:21;;;;;;;4.10;3.42;;;16.40;99.90;;;;;;4952166;28;20104;-87
2023/07/20 00:11:52;;;;;;;4.07;3.20;;;16.30;99.90;;;;;;4963583;28;20038;-87
2023/07/20 00:14:18;;;;;;;4.95;3.25;;;16.40;99.90;;;;;;5056232;28;20078;-87
2023/07/20 00:16:55;;;;;;;5.85;3.60;;;16.40;99.90;;;;;;5068600;28;20034;-87
2023/07/20 00:19:26;;;;;;;4.38;2.90;;;16.20;99.90;;;;;;4975782;28;20042;-87
2023/07/20 00:21:52;;;;;;;4.25;2.85;;;16.40;99.90;;;;;;4968685;28;20061;-87
2023/07/20 00:24:18;;;;;;;3.15;2.85;;;16.20;99.90;;;;;;4973566;28;20035;-87
2023/07/20 00:26:48;;;;;;;3.42;2.83;;;16.40;99.90;;;;;;4961660;28;20075;-87
2023/07/20 00:29:14;;;;;;;6.07;3.63;;;16.30;99.90;;;;;;4976330;28;20046;-87
2023/07/20 00:31:42;;;;;;;4.28;2.90;;;16.40;99.90;;;;;;5059189;28;20042;-87
2023/07/20 00:34:07;;;;;;;3.20;2.90;;;16.30;99.90;;;;;;4972116;28;20103;-88
2023/07/20 00:36:33;;;;;;;3.00;2.70;;;16.20;99.90;;;;;;4962597;28;20363;-87
2023/07/20 00:38:59;;;;;;;3.35;2.65;;;16.20;99.90;;;;;;4983568;28;20034;-87
2023/07/20 00:41:29;;;;;;;3.30;2.40;;;16.20;99.90;;;;;;5046602;28;20168;-87
2023/07/20 00:43:55;;;;;;;3.28;2.53;;;16.10;99.90;;;;;;5040573;28;20042;-87
2023/07/20 00:46:24;;;;;;;3.33;2.47;;;16.20;99.90;;;;;;4975519;28;20050;-87
2023/07/20 00:48:50;;;;;;;3.38;2.78;;;16.10;99.90;;;;;;4975270;28;20042;-86
2023/07/20 00:51:16;;;;;;;2.97;2.28;;;15.90;99.90;;;;;;4958172;28;20125;-87
2023/07/20 00:53:42;;;;;;;2.30;2.10;;;15.90;99.90;;;;;;5048324;28;20092;-87
2023/07/20 00:56:08;;;;;;;4.90;2.10;;;15.70;99.90;;;;;;4980896;28;20038;-87
2023/07/20 00:58:35;;;;;;;2.72;2.42;;;15.70;99.90;;;;;;4955414;28;20043;-88
2023/07/20 01:01:01;;;;;;;2.95;2.35;;;15.70;99.90;;;;;;4989805;28;20125;-88
2023/07/20 01:03:26;;;;;;;3.33;2.50;;;15.60;99.90;;;;;;4975345;28;20126;-87
2023/07/20 01:05:52;;;;;;;3.58;2.60;;;15.50;99.90;;;;;;4955873;28;20085;-87
2023/07/20 01:08:28;;;;;;;2.95;2.55;;;15.50;99.90;;;;;;4958443;28;20054;-87
2023/07/20 01:11:03;;;;;;;5.13;2.50;;;15.30;99.90;;;;;;4975533;28;20494;-87
2023/07/20 01:13:29;;;;;;;3.67;2.20;;;15.30;99.90;;;;;;4975287;28;20038;-87
2023/07/20 01:16:01;;;;;;;2.90;2.30;;;15.20;99.90;;;;;;4958944;28;20536;-87
2023/07/20 01:18:29;;;;;;;2.40;2.20;;;15.10;99.90;;;;;;4976842;28;20034;-87
2023/07/20 01:21:02;;;;;;;2.90;2.03;;;15.10;99.90;;;;;;5008083;28;20031;-86
2023/07/20 01:23:50;;;;;;;3.28;2.40;;;15.00;99.90;;;;;;4993268;28;20030;-87
2023/07/20 01:26:43;;;;;;;2.72;2.53;;;15.00;99.90;;;;;;4974280;28;20038;-87
2023/07/20 01:29:39;;;;;;;3.85;2.85;;;15.10;99.90;;;;;;4983384;28;20102;-86
2023/07/20 01:32:11;;;;;;;2.85;2.58;;;15.00;99.90;;;;;;5080622;28;20022;-87
2023/07/20 01:34:39;;;;;;;4.03;2.45;;;15.00;99.90;;;;;;5068704;28;20042;-87
2023/07/20 01:37:08;;;;;;;3.65;2.55;;;15.00;99.90;;;;;;5044806;28;20038;-87
2023/07/20 01:39:35;;;;;;;2.60;2.40;;;15.00;99.90;;;;;;5000417;28;20038;-86
2023/07/20 01:42:03;;;;;;;3.97;2.20;;;14.90;99.90;;;;;;4953721;28;20045;-87
2023/07/20 01:44:29;;;;;;;2.63;2.30;;;14.90;99.90;;;;;;4971289;28;20032;-87
2023/07/20 01:46:55;;;;;;;3.53;2.38;;;15.10;99.90;;;;;;4964089;28;20046;-87
2023/07/20 01:49:21;;;;;;;2.65;2.45;;;14.90;99.90;;;;;;4975120;28;20529;-87
2023/07/20 01:51:47;;;;;;;2.92;2.42;;;15.00;99.90;;;;;;4968784;28;20110;-87
2023/07/20 01:54:13;;;;;;;5.18;2.47;;;14.90;99.90;;;;;;4980154;28;20034;-86
2023/07/20 01:56:38;;;;;;;4.25;2.42;;;15.00;99.90;;;;;;4956393;28;20065;-87
2023/07/20 01:59:04;;;;;;;2.58;2.38;;;14.90;99.90;;;;;;4960004;28;20037;-87
2023/07/20 02:01:30;;;;;;;2.55;2.35;;;14.80;99.90;;;;;;4959808;28;20031;-87
2023/07/20 02:03:55;;;;;;;4.40;2.72;;;14.80;99.90;;;;;;4979590;28;20072;-87
2023/07/20 02:06:21;;;;;;;4.47;2.60;;;14.80;99.90;;;;;;4971895;28;20133;-87
2023/07/20 02:08:47;;;;;;;3.65;2.60;;;14.90;99.90;;;;;;4967076;28;20134;-87
2023/07/20 02:11:12;;;;;;;4.25;2.78;;;14.70;99.90;;;;;;5060555;28;20038;-87
2023/07/20 02:13:38;;;;;;;4.20;2.40;;;14.70;99.90;;;;;;5046689;28;20843;-87
2023/07/20 02:16:04;;;;;;;2.63;2.10;;;14.80;99.90;;;;;;4966754;28;20047;-88
2023/07/20 02:18:30;;;;;;;3.15;2.53;;;14.80;99.90;;;;;;5058875;28;20084;-87
2023/07/20 02:20:56;;;;;;;3.95;2.15;;;14.80;99.90;;;;;;4954990;28;20057;-86
2023/07/20 02:23:21;;;;;;;2.70;2.50;;;14.70;99.90;;;;;;4943040;28;20461;-87
2023/07/20 02:25:47;;;;;;;2.40;2.20;;;14.50;99.90;;;;;;4974026;28;20688;-89
2023/07/20 02:28:14;;;;;;;5.57;2.38;;;14.60;99.90;;;;;;4958174;28;20544;-88
2023/07/20 02:30:40;;;;;;;3.45;2.20;;;14.50;99.90;;;;;;4971023;28;20060;-88
2023/07/20 02:33:07;;;;;;;2.70;2.35;;;14.50;99.90;;;;;;4974017;28;20038;-88
2023/07/20 02:35:33;;;;;;;4.57;2.30;;;14.50;99.90;;;;;;4986178;28;20038;-88
2023/07/20 02:37:59;;;;;;;2.55;2.22;;;14.50;99.90;;;;;;4973895;28;20034;-88
2023/07/20 02:40:25;;;;;;;2.40;2.20;;;14.50;99.90;;;;;;4970714;28;20066;-88
2023/07/20 02:42:51;;;;;;;2.85;2.20;;;14.60;99.90;;;;;;4967804;28;20082;-88
2023/07/20 02:45:17;;;;;;;4.82;2.40;;;14.40;99.90;;;;;;4953227;28;20083;-88
2023/07/20 02:47:42;;;;;;;2.47;2.22;;;14.50;99.90;;;;;;4954172;28;20145;-88
2023/07/20 02:50:13;;;;;;;2.55;2.35;;;14.40;99.90;;;;;;4957486;28;20042;-88
2023/07/20 02:52:39;;;;;;;3.60;2.17;;;14.40;99.90;;;;;;4980528;28;20138;-88
2023/07/20 02:55:05;;;;;;;2.10;2.00;;;14.20;99.90;;;;;;4983068;28;20570;-89
2023/07/20 02:57:33;;;;;;;3.58;2.28;;;14.30;99.90;;;;;;4987966;28;20584;-88
2023/07/20 02:59:59;;;;;;;5.28;2.13;;;14.10;99.90;;;;;;5062973;28;20451;-88
2023/07/20 03:02:25;;;;;;;2.33;1.80;;;14.20;99.90;;;;;;4964865;28;20081;-88
2023/07/20 03:04:51;;;;;;;3.00;2.05;;;14.30;99.90;;;;;;5068090;28;20129;-88
2023/07/20 03:07:19;;;;;;;2.00;1.80;;;14.20;99.90;;;;;;5066148;28;20116;-88
2023/07/20 03:09:45;;;;;;;2.47;2.13;;;14.20;99.90;;;;;;4953540;28;20055;-89
2023/07/20 03:12:11;;;;;;;2.90;2.22;;;14.20;99.90;;;;;;4988349;28;20403;-88
2023/07/20 03:14:36;;;;;;;4.53;2.10;;;14.20;99.90;;;;;;4960034;28;20490;-88
2023/07/20 03:17:02;;;;;;;3.08;2.15;;;14.20;99.90;;;;;;4960608;28;20045;-89
2023/07/20 03:19:28;;;;;;;4.43;2.30;;;14.20;99.90;;;;;;4976497;28;20031;-89
2023/07/20 03:21:54;;;;;;;2.63;2.40;;;14.20;99.90;;;;;;4973757;28;20049;-88
2023/07/20 03:24:19;;;;;;;4.10;3.70;;;14.10;99.90;;;;;;5050024;28;20051;-86
2023/07/20 03:26:45;;;;;;;9.10;4.70;;;14.00;99.90;;;;;;5001943;28;20173;-87
2023/07/20 03:29:11;;;;;;;5.05;4.50;;;13.90;99.90;;;;;;5068854;28;20071;-87
2023/07/20 03:31:38;;;;;;;7.60;4.53;;;14.00;99.90;;;;;;4968770;28;20042;-87
2023/07/20 03:34:04;;;;;;;6.43;5.05;;;14.00;99.90;;;;;;4962883;28;20046;-87
2023/07/20 03:36:31;;;;;;;6.57;5.85;;;14.00;99.90;;;;;;4983972;28;20103;-88
2023/07/20 03:38:57;;;;;;;6.78;6.07;;;14.10;99.90;;;;;;4975666;28;20529;-87
2023/07/20 03:41:22;;;;;;;6.90;5.38;;;14.00;99.90;;;;;;4969904;28;20035;-87
2023/07/20 03:43:48;;;;;;;5.95;5.35;;;14.00;99.90;;;;;;5041395;28;20125;-87
2023/07/20 03:46:20;;;;;;;7.18;6.10;;;13.90;99.90;;;;;;4981974;28;20141;-87
2023/07/20 03:48:49;;;;;;;8.52;6.72;;;13.90;99.90;;;;;;5041035;28;20126;-87
2023/07/20 03:51:14;;;;;;;7.97;6.80;;;13.90;99.90;;;;;;4974529;28;20038;-87
2023/07/20 03:53:40;;;;;;;8.15;5.70;;;13.80;99.90;;;;;;4972087;28;20046;-88
2023/07/20 03:56:06;;;;;;;7.65;6.60;;;13.70;99.90;;;;;;4956654;28;20107;-88
2023/07/20 03:58:33;;;;;;;6.13;5.45;;;13.70;99.90;;;;;;4972664;28;20102;-88
2023/07/20 04:00:58;;;;;;;11.32;5.93;;;13.70;99.90;;;;;;4955919;28;20110;-87
2023/07/20 04:03:26;;;;;;;8.10;5.50;;;13.70;99.90;;;;;;4972774;28;20092;-87
2023/07/20 04:05:57;;;;;;;6.80;5.68;;;13.60;99.90;;;;;;4956627;28;20100;-87
2023/07/20 04:08:26;;;;;;;6.95;5.70;;;13.70;99.90;;;;;;4972375;28;20456;-87
2023/07/20 04:10:52;;;;;;;8.80;6.50;;;13.60;99.90;;;;;;4956679;28;20402;-87
2023/07/20 04:13:18;;;;;;;8.25;5.57;;;13.50;99.90;;;;;;4972684;28;20057;-87
2023/07/20 04:15:44;;;;;;;6.28;5.70;;;13.60;99.90;;;;;;4972526;28;20129;-88
2023/07/20 04:18:12;;;;;;;6.90;6.07;;;13.60;99.90;;;;;;5053762;28;20077;-88
2023/07/20 04:20:37;;;;;;;8.23;6.75;;;13.10;99.90;;;;;;5037520;28;20031;-87
2023/07/20 04:23:03;;;;;;;7.47;6.82;;;13.60;99.90;;;;;;4972304;28;20039;-88
2023/07/20 04:25:38;;;;;;;6.68;5.97;;;13.50;99.90;;;;;;4973028;28;20050;-88
2023/07/20 04:28:10;;;;;;;7.13;6.43;;;13.60;99.90;;;;;;4974141;28;20091;-88
2023/07/20 04:30:37;;;;;;;7.05;6.35;;;13.70;99.90;;;;;;4970881;28;20129;-88
2023/07/20 04:33:03;;;;;;;8.80;6.55;;;13.70;99.90;;;;;;4975289;28;20139;-87
2023/07/20 04:35:57;;;;;;;6.68;5.28;;;13.70;99.90;;;;;;4949816;28;20039;-88
2023/07/20 04:38:23;;;;;;;8.55;6.00;;;13.90;99.90;;;;;;5061501;28;20046;-88
2023/07/20 04:40:52;;;;;;;6.80;5.60;;;14.00;99.90;;;;;;4974056;28;20034;-88
2023/07/20 04:43:18;;;;;;;6.60;5.82;;;14.00;99.90;;;;;;5025083;28;20125;-88
2023/07/20 04:45:50;;;;;;;5.95;5.32;;;14.10;99.90;;;;;;4999089;28;20116;-88
2023/07/20 04:48:17;;;;;;;5.50;5.00;;;14.10;99.90;;;;;;4961596;28;20125;-88
2023/07/20 04:50:46;;;;;;;6.03;5.47;;;14.20;99.90;;;;;;5075576;28;20028;-88
2023/07/20 04:53:12;;;;;;;5.82;5.20;;;14.40;99.90;;;;;;4965095;28;20042;-88
2023/07/20 04:55:50;;;;;;;5.22;4.75;;;14.50;99.90;;;;;;4975238;28;20073;-88
2023/07/20 04:58:17;;;;;;;5.85;4.38;;;14.40;99.90;;;;;;5076062;28;20019;-87
2023/07/20 05:00:42;;;;;;;6.22;4.20;;;14.50;99.90;;;;;;5069611;28;20035;-88
2023/07/20 05:03:08;;;;;;;4.00;3.70;;;14.60;99.90;;;;;;4965143;28;20042;-88
2023/07/20 05:05:34;;;;;;;3.88;3.55;;;14.60;99.90;;;;;;5023337;28;20458;-89
2023/07/20 05:07:59;;;;;;;5.18;3.38;;;14.60;99.90;;;;;;5043842;28;20085;-89
2023/07/20 05:10:25;;;;;;;4.90;3.35;;;14.60;99.90;;;;;;4941111;28;20138;-90
2023/07/20 05:12:51;;;;;;;5.18;3.47;;;14.60;99.90;;;;;;5009874;28;20051;-90
2023/07/20 05:15:17;;;;;;;4.80;3.33;;;14.70;99.90;;;;;;4970535;28;20049;-88
2023/07/20 05:17:42;;;;;;;3.10;2.80;;;14.60;99.90;;;;;;4975902;28;20041;-90
2023/07/20 05:20:12;;;;;;;4.97;3.58;;;14.80;99.90;;;;;;4949970;28;20039;-89
2023/07/20 05:22:43;;;;;;;3.40;2.97;;;15.00;99.90;;;;;;4973848;28;20046;-90
2023/07/20 05:25:10;;;;;;;3.60;3.05;;;15.10;99.90;;;;;;5045908;28;20035;-89
2023/07/20 05:27:39;;;;;;;3.72;2.80;;;15.20;99.90;;;;;;4968050;28;20054;-90
2023/07/20 05:30:07;;;;;;;2.80;2.60;;;15.10;99.90;;;;;;5065754;28;20386;-89
2023/07/20 05:32:33;;;;;;;4.90;2.97;;;15.30;99.90;;;;;;5064080;28;21674;-89
2023/07/20 05:34:59;;;;;;;3.55;2.45;;;15.20;99.90;;;;;;5018119;28;20526;-90
2023/07/20 05:37:24;;;;;;;6.30;3.22;;;15.20;99.90;;;;;;4971972;28;20042;-89
2023/07/20 05:39:51;;;;;;;2.47;2.15;;;15.50;99.90;;;;;;4924038;28;20046;-88
2023/07/20 05:42:19;;;;;;;3.92;2.10;;;15.60;99.90;;;;;;5057010;28;20048;-91
2023/07/20 05:44:47;;;;;;;3.47;1.75;;;15.70;99.90;;;;;;5073847;28;20133;-90
2023/07/20 05:47:16;;;;;;;3.22;2.17;;;15.10;99.90;;;;;;4988163;28;20046;-89
2023/07/20 05:49:42;;;;;;;2.75;1.55;;;16.00;99.90;;;;;;4997494;28;20053;-91
2023/07/20 05:52:07;;;;;;;4.75;2.20;;;16.10;99.90;;;;;;5057156;28;20126;-89
2023/07/20 05:54:33;;;;;;;6.35;1.77;;;16.20;99.90;;;;;;4958927;28;20039;-91
2023/07/20 05:56:59;;;;;;;2.72;1.65;;;16.20;99.90;;;;;;4959093;28;20121;-89
2023/07/20 05:59:27;;;;;;;6.15;1.83;;;16.30;99.90;;;;;;4968942;28;20042;-90
2023/07/20 06:01:53;;;;;;;3.85;1.40;;;16.30;99.90;;;;;;4959641;28;20039;-92
2023/07/20 06:04:19;;;;;;;3.28;1.42;;;16.30;99.90;;;;;;4996153;28;20567;-91
2023/07/20 06:06:46;;;;;;;1.75;1.35;;;16.50;99.90;;;;;;5006795;28;20036;-92
2023/07/20 06:09:12;;;;;;;4.28;1.20;;;16.40;99.90;;;;;;4984661;28;20089;-89
2023/07/20 06:11:46;;;;;;;5.47;1.33;;;16.50;99.90;;;;;;4940189;28;20077;-90
2023/07/20 06:14:12;;;;;;;3.28;1.60;;;16.50;99.90;;;;;;4973919;28;20389;-90
2023/07/20 06:16:43;;;;;;;4.63;1.55;;;16.60;99.90;;;;;;4981649;28;20118;-90
2023/07/20 06:19:11;;;;;;;5.18;1.40;;;16.80;99.90;;;;;;4970922;28;20099;-88
2023/07/20 06:21:36;;;;;;;4.50;1.40;;;16.90;99.90;;;;;;4941964;28;20034;-90
2023/07/20 06:24:04;;;;;;;2.92;1.48;;;17.00;99.90;;;;;;4958445;28;20103;-89
2023/07/20 06:26:38;;;;;;;3.20;1.30;;;16.10;99.90;;;;;;4956648;28;20042;-88
2023/07/20 06:29:06;;;;;;;3.05;1.25;;;17.00;99.90;;;;;;4977032;28;20121;-92
2023/07/20 06:31:32;;;;;;;3.20;1.20;;;17.20;99.90;;;;;;4970154;28;20543;-89
2023/07/20 06:34:01;;;;;;;6.00;1.48;;;17.30;99.90;;;;;;5058962;28;20074;-89
2023/07/20 06:36:27;;;;;;;3.65;1.38;;;17.30;99.90;;;;;;4959498;28;20035;-90
2023/07/20 06:38:53;;;;;;;7.13;1.55;;;17.30;99.90;;;;;;5069719;28;20131;-87
2023/07/20 06:41:22;;;;;;;2.03;1.30;;;17.40;99.90;;;;;;5003863;28;20121;-88
2023/07/20 06:43:48;;;;;;;6.05;1.70;;;17.70;99.90;;;;;;5012084;28;20429;-88
2023/07/20 06:46:14;;;;;;;5.93;1.58;;;17.80;99.90;;;;;;4955351;28;20129;-88
2023/07/20 06:48:39;;;;;;;4.80;1.40;;;17.90;99.90;;;;;;5039617;28;20653;-89
2023/07/20 06:51:05;;;;;;;3.95;1.80;;;17.90;99.90;;;;;;4987182;28;20185;-88
2023/07/20 06:53:31;;;;;;;4.50;1.80;;;17.80;99.90;;;;;;4984468;28;20551;-90
2023/07/20 06:55:57;;;;;;;2.53;1.50;;;18.00;99.90;;;;;;5010658;28;20102;-90
2023/07/20 06:58:24;;;;;;;3.72;1.42;;;18.20;99.90;;;;;;5007938;28;20395;-90
2023/07/20 07:00:49;;;;;;;2.10;1.60;;;18.10;99.90;;;;;;4993929;28;20762;-88
2023/07/20 07:03:15;;;;;;;3.10;1.65;;;18.10;99.90;;;;;;4988740;28;20121;-89
2023/07/20 07:05:41;;;;;;;2.78;1.70;;;18.10;99.90;;;;;;4987661;28;20127;-91
2023/07/20 07:08:07;;;;;;;4.57;1.70;;;18.30;99.90;;;;;;5039164;28;20341;-89
2023/07/20 07:10:35;;;;;;;3.38;2.03;;;18.60;99.90;;;;;;5026621;28;20097;-88
2023/07/20 07:13:01;;;;;;;3.97;2.20;;;18.70;99.90;;;;;;5066967;28;20039;-91
2023/07/20 07:15:30;;;;;;;3.78;1.73;;;18.80;99.90;;;;;;4983016;28;20050;-88
2023/07/20 07:17:56;;;;;;;5.07;1.80;;;18.80;99.90;;;;;;5002395;28;20516;-88
2023/07/20 07:20:23;;;;;;;4.15;1.80;;;18.80;99.90;;;;;;4974016;28;20046;-90
2023/07/20 07:22:51;;;;;;;4.60;2.00;;;18.20;99.90;;;;;;4968291;28;20035;-89
2023/07/20 07:25:17;;;;;;;3.03;1.80;;;18.90;99.90;;;;;;4971328;28;20095;-89
2023/07/20 07:27:46;;;;;;;4.20;1.67;;;19.10;99.90;;;;;;5030883;28;20061;-91
2023/07/20 07:30:12;;;;;;;4.38;1.90;;;18.60;99.90;;;;;;4974077;28;20400;-91
2023/07/20 07:32:41;;;;;;;2.88;1.67;;;18.30;99.90;;;;;;4947856;28;20038;-90
2023/07/20 07:35:07;;;;;;;3.38;2.00;;;18.60;99.90;;;;;;4973650;28;20053;-91
2023/07/20 07:37:36;;;;;;;4.00;2.13;;;18.80;99.90;;;;;;5058865;28;20042;-90
2023/07/20 07:40:03;;;;;;;2.67;1.80;;;18.90;99.90;;;;;;5042400;28;20036;-90
2023/07/20 07:42:29;;;;;;;5.25;1.98;;;18.40;99.90;;;;;;4960634;28;20046;-89
2023/07/20 07:44:55;;;;;;;4.75;1.63;;;19.10;99.90;;;;;;5063447;28;20043;-89
2023/07/20 07:47:23;;;;;;;5.20;2.05;;;19.30;99.90;;;;;;4957455;28;20056;-90
2023/07/20 07:49:52;;;;;;;6.38;2.03;;;19.10;99.90;;;;;;4981818;28;20087;-91
2023/07/20 07:52:17;;;;;;;2.10;1.45;;;19.30;99.90;;;;;;4974248;28;20521;-89
2023/07/20 07:54:43;;;;;;;3.95;1.95;;;19.10;99.90;;;;;;4955034;28;20066;-90
2023/07/20 07:57:13;;;;;;;3.08;1.63;;;19.50;99.90;;;;;;5041189;28;20030;-90
2023/07/20 07:59:40;;;;;;;5.95;1.80;;;20.10;99.90;;;;;;4980254;28;20030;-89
2023/07/20 08:02:08;;;;;;;4.72;2.10;;;19.40;99.90;;;;;;4977830;28;20046;-91
2023/07/20 08:04:33;;;;;;;4.75;1.50;;;19.50;99.90;;;;;;4953645;28;20103;-89
2023/07/20 08:06:59;;;;;;;3.50;1.95;;;19.20;99.90;;;;;;4970198;28;20043;-89
2023/07/20 08:09:25;;;;;;;3.78;1.50;;;19.00;99.90;;;;;;5039463;28;20063;-90
2023/07/20 08:11:51;;;;;;;3.45;1.55;;;18.70;99.90;;;;;;5049522;28;20088;-88
2023/07/20 08:14:17;;;;;;;7.93;1.65;;;18.60;99.90;;;;;;5041633;28;20042;-89
2023/07/20 08:16:43;;;;;;;3.45;1.80;;;17.80;99.90;;;;;;5074904;28;20047;-88
2023/07/20 08:19:11;;;;;;;3.72;1.40;;;18.40;99.90;;;;;;5062075;28;20528;-89
2023/07/20 08:21:37;;;;;;;3.58;1.50;;;18.60;99.90;;;;;;4957662;28;20035;-88
2023/07/20 08:24:03;;;;;;;3.47;1.20;;;19.00;99.90;;;;;;4987177;28;20038;-89
2023/07/20 08:26:35;;;;;;;4.15;1.30;;;19.10;99.90;;;;;;4949442;28;20042;-91
2023/07/20 08:29:03;;;;;;;2.33;1.30;;;19.10;99.90;;;;;;4955190;28;20046;-89
2023/07/20 08:31:29;;;;;;;3.58;1.38;;;19.50;99.90;;;;;;5071636;28;20100;-89
2023/07/20 08:33:56;;;;;;;2.17;1.45;;;19.70;99.90;;;;;;4989189;28;20478;-88
2023/07/20 08:36:26;;;;;;;6.10;1.27;;;19.50;99.90;;;;;;4971405;28;20500;-91
2023/07/20 08:38:51;;;;;;;2.92;1.17;;;19.50;99.90;;;;;;4955187;28;20038;-91
2023/07/20 08:41:18;;;;;;;1.50;1.10;;;19.60;99.90;;;;;;4976366;28;20034;-88
2023/07/20 08:43:49;;;;;;;2.80;1.05;;;20.00;99.90;;;;;;4976034;28;20050;-89
2023/07/20 08:46:16;;;;;;;3.13;1.30;;;19.80;99.90;;;;;;4976331;28;20046;-89
2023/07/20 08:48:44;;;;;;;2.50;1.30;;;19.40;99.90;;;;;;4958494;28;20042;-90
2023/07/20 08:51:11;;;;;;;1.92;1.00;;;19.50;99.90;;;;;;4959951;28;20050;-89
2023/07/20 08:53:36;;;;;;;2.00;1.00;;;19.90;99.90;;;;;;4986543;28;20083;-88
2023/07/20 08:56:04;;;;;;;2.15;1.00;;;20.10;99.90;;;;;;4961250;28;20070;-89
2023/07/20 08:58:31;;;;;;;3.47;1.23;;;20.40;99.90;;;;;;4959990;28;20038;-90
2023/07/20 09:01:00;;;;;;;2.58;0.90;;;20.60;99.90;;;;;;4971736;28;20138;-89
2023/07/20 09:03:26;;;;;;;2.33;1.08;;;20.60;99.90;;;;;;4959082;28;20038;-88
2023/07/20 09:05:52;;;;;;;1.75;1.00;;;20.50;99.90;;;;;;4959300;28;20042;-89
2023/07/20 09:08:21;;;;;;;3.00;1.00;;;20.10;99.90;;;;;;4966991;28;20061;-89
2023/07/20 09:10:46;;;;;;;3.33;1.20;;;20.20;99.90;;;;;;5044161;28;20128;-89
2023/07/20 09:13:17;;;;;;;2.05;0.98;;;20.60;99.90;;;;;;4974921;28;20035;-89
2023/07/20 09:15:47;;;;;;;2.97;1.30;;;20.50;99.90;;;;;;4963801;28;20038;-89
2023/07/20 09:18:29;;;;;;;2.20;0.80;;;20.80;99.90;;;;;;5067322;28;20031;-89
2023/07/20 09:21:02;;;;;;;1.25;0.80;;;21.30;99.90;;;;;;4961935;28;20094;-89
2023/07/20 09:23:36;;;;;;;1.95;1.08;;;21.20;99.90;;;;;;4959835;28;20054;-89
2023/07/20 09:26:13;;;;;;;1.67;0.70;;;20.80;99.90;;;;;;4977064;28;20386;-90
2023/07/20 09:28:44;;;;;;;3.33;1.02;;;20.90;99.90;;;;;;5040706;28;20052;-88
2023/07/20 09:31:17;;;;;;;2.92;0.98;;;21.50;99.90;;;;;;4960595;28;20046;-89
2023/07/20 09:33:43;;;;;;;3.38;0.80;;;21.90;99.90;;;;;;5041146;28;20043;-89
2023/07/20 09:36:12;;;;;;;1.23;0.80;;;22.00;99.90;;;;;;4957099;28;20039;-90
2023/07/20 09:38:41;;;;;;;3.15;0.82;;;22.40;99.90;;;;;;4958960;28;20034;-89
2023/07/20 09:41:07;;;;;;;2.47;1.00;;;21.70;99.90;;;;;;4982971;28;20041;-91
2023/07/20 09:43:34;;;;;;;1.95;0.90;;;21.40;99.90;;;;;;5066259;28;20390;-89
2023/07/20 09:46:00;;;;;;;2.03;1.10;;;20.70;99.90;;;;;;4941649;28;20467;-89
2023/07/20 09:48:26;;;;;;;1.33;0.85;;;20.40;99.90;;;;;;4939855;28;20074;-88
2023/07/20 09:50:53;;;;;;;3.67;1.10;;;21.30;99.90;;;;;;4938706;28;20086;-89
2023/07/20 09:53:20;;;;;;;3.92;1.58;;;21.80;99.90;;;;;;4957553;28;20645;-89
2023/07/20 09:55:49;;;;;;;1.92;1.10;;;22.10;99.90;;;;;;4950125;28;20035;-89
2023/07/20 09:58:15;;;;;;;2.90;0.82;;;21.60;99.90;;;;;;5035121;28;20111;-89
2023/07/20 10:00:46;;;;;;;1.98;1.20;;;21.10;99.90;;;;;;4963354;28;20482;-91
2023/07/20 10:03:18;;;;;;;3.08;1.00;;;20.70;99.90;;;;;;4970924;28;20811;-89
2023/07/20 10:06:06;;;;;;;3.15;0.95;;;20.30;99.90;;;;;;4964257;28;20489;-89
2023/07/20 10:08:33;;;;;;;1.83;0.90;;;21.00;99.90;;;;;;4961520;28;20368;-90
2023/07/20 10:11:01;;;;;;;2.38;0.93;;;21.90;99.90;;;;;;5056956;28;20057;-89
2023/07/20 10:13:29;;;;;;;2.20;1.25;;;22.00;99.90;;;;;;4974149;28;20075;-91
2023/07/20 10:16:06;;;;;;;2.75;0.93;;;22.20;99.90;;;;;;4953566;28;20073;-90
2023/07/20 10:18:41;;;;;;;2.15;1.05;;;21.80;99.90;;;;;;4971187;28;20096;-90
2023/07/20 10:21:10;;;;;;;1.90;0.90;;;21.00;99.90;;;;;;4971019;28;20470;-89
2023/07/20 10:23:37;;;;;;;1.50;0.88;;;20.70;99.90;;;;;;4954737;28;20054;-91
2023/07/20 10:26:03;;;;;;;1.10;0.80;;;20.50;99.90;;;;;;4963492;28;20077;-90
2023/07/20 10:28:28;;;;;;;3.75;1.38;;;20.80;99.90;;;;;;4956105;28;20064;-91
2023/07/20 10:30:54;;;;;;;1.63;1.08;;;21.60;99.90;;;;;;4988147;28;20113;-89
2023/07/20 10:33:24;;;;;;;2.58;1.13;;;22.20;99.90;;;;;;4965052;28;20243;-90
2023/07/20 10:36:05;;;;;;;2.42;0.90;;;22.60;99.90;;;;;;5062751;28;20070;-89
2023/07/20 10:38:54;;;;;;;2.00;1.13;;;22.90;99.90;;;;;;5063898;28;20441;-90
2023/07/20 10:41:24;;;;;;;3.78;1.20;;;22.60;99.90;;;;;;4966406;28;20035;-89
2023/07/20 10:43:50;;;;;;;1.67;1.00;;;21.80;99.90;;;;;;5060674;28;20058;-89
2023/07/20 10:46:58;;;;;;;2.40;0.90;;;21.50;99.90;;;;;;4958260;28;20043;-90
2023/07/20 10:49:26;;;;;;;1.55;0.80;;;20.60;99.90;;;;;;4996522;28;20131;-89
2023/07/20 10:52:04;;;;;;;2.92;1.02;;;20.90;99.90;;;;;;5053178;28;20392;-90
2023/07/20 10:54:33;;;;;;;2.45;0.80;;;20.90;99.90;;;;;;4955054;28;20148;-90
2023/07/20 10:57:23;;;;;;;2.40;0.98;;;20.90;99.90;;;;;;4960750;28;20133;-89
2023/07/20 10:59:49;;;;;;;1.17;0.95;;;21.80;99.90;;;;;;4958235;28;20030;-91
2023/07/20 11:02:18;;;;;;;1.60;1.10;;;22.40;99.90;;;;;;4971751;28;20035;-89
2023/07/20 11:04:46;;;;;;;2.47;1.00;;;22.50;99.90;;;;;;4993567;28;20038;-90
2023/07/20 11:07:40;;;;;;;1.40;1.00;;;22.90;99.90;;;;;;4974367;28;20053;-89
2023/07/20 11:10:15;;;;;;;1.88;1.00;;;22.90;40.50;;;;;;4982922;28;20050;-92
2023/07/20 11:13:01;;;;;;;1.42;1.00;;;23.40;85.90;;;;;;4971316;28;20050;-89
2023/07/20 11:15:44;;;;;;;1.92;1.00;;;23.40;90.10;;;;;;4970676;28;20082;-89
2023/07/20 11:18:14;;;;;;;2.95;1.48;;;23.60;95.30;;;;;;5061055;28;20042;-90
2023/07/20 11:20:40;;;;;;;1.50;0.82;;;22.60;67.00;;;;;;4972555;28;20050;-90
2023/07/20 11:23:06;;;;;;;1.23;0.88;;;22.20;62.50;;;;;;4966155;28;20038;-89
2023/07/20 11:25:40;;;;;;;2.50;0.90;;;21.70;68.00;;;;;;4977357;28;20421;-90
2023/07/20 11:28:12;;;;;;;1.20;0.90;;;22.00;48.80;;;;;;4959160;28;20100;-88
2023/07/20 11:30:38;;;;;;;1.42;1.00;;;22.60;32.50;;;;;;5077578;27;20093;-88
2023/07/20 11:33:05;;;;;;;1.48;1.00;;;23.10;30.00;;;;;;4954177;28;20074;-91
2023/07/20 11:35:36;;;;;;;1.20;0.75;;;23.40;1.90;;;;;;4943050;28;20126;-89
2023/07/20 11:38:02;;;;;;;1.35;1.10;;;22.30;4.90;;;;;;4995307;28;20126;-90
2023/07/20 11:40:29;;;;;;;2.97;0.90;;;22.10;1.00;;;;;;5055731;28;20122;-90
2023/07/20 11:42:55;;;;;;;2.38;1.13;;;22.90;11.30;;;;;;4949313;28;20043;-91
2023/07/20 11:45:21;;;;;;;6.40;1.20;;;23.10;1.00;;;;;;5055521;28;20039;-90
2023/07/20 11:47:46;;;;;;;1.60;0.98;;;23.60;13.10;;;;;;4988181;28;20087;-91
2023/07/20 11:50:15;;;;;;;1.73;0.98;;;23.30;1.00;;;;;;4960256;28;20045;-92
2023/07/20 11:52:42;;;;;;;1.35;0.90;;;22.60;1.00;;;;;;5084780;28;20050;-90
2023/07/20 11:55:08;;;;;;;1.70;0.85;;;22.20;1.00;;;;;;5000746;28;20068;-91
2023/07/20 11:57:34;;;;;;;2.13;1.10;;;22.60;1.00;;;;;;4959360;28;20038;-91
2023/07/20 12:00:05;;;;;;;2.30;1.30;;;22.60;1.00;;;;;;4972368;28;20046;-90
2023/07/20 12:02:33;;;;;;;2.75;1.15;;;23.00;1.00;;;;;;4972457;28;20077;-90
2023/07/20 12:05:03;;;;;;;4.60;0.98;;;23.40;1.00;;;;;;5068525;28;20076;-90
2023/07/20 12:07:34;;;;;;;1.65;0.80;;;22.80;1.00;;;;;;4965823;28;20047;-90
2023/07/20 12:10:08;;;;;;;1.80;0.93;;;22.60;1.00;;;;;;4978284;28;20062;-90
2023/07/20 12:12:37;;;;;;;1.52;0.90;;;22.10;1.00;;;;;;5060957;28;20100;-90
2023/07/20 12:15:19;;;;;;;1.67;0.90;;;22.60;1.00;;;;;;5061527;28;20065;-90
2023/07/20 12:17:45;;;;;;;1.92;0.93;;;22.40;1.00;;;;;;5063045;28;20031;-91
2023/07/20 12:20:11;;;;;;;1.13;0.85;;;22.40;1.00;;;;;;4964514;28;20209;-90
2023/07/20 12:22:43;;;;;;;1.48;0.80;;;22.30;1.00;;;;;;4978262;28;20038;-90
2023/07/20 12:25:12;;;;;;;1.52;0.93;;;22.10;1.00;;;;;;4982363;28;20042;-90
2023/07/20 12:27:38;;;;;;;1.63;1.17;;;21.70;1.00;;;;;;4979742;28;20034;-91
2023/07/20 12:30:06;;;;;;;2.03;0.90;;;21.80;1.00;;;;;;4981498;28;20395;-88
2023/07/20 12:32:32;;;;;;;1.75;0.90;;;21.60;1.00;;;;;;5077781;28;20172;-90
2023/07/20 12:35:00;;;;;;;2.65;1.10;;;21.20;5.40;;;;;;4961845;28;20509;-90
2023/07/20 12:37:26;;;;;;;2.60;1.02;;;21.10;1.90;;;;;;4960520;28;20030;-90
2023/07/20 12:39:52;;;;;;;3.85;1.08;;;21.30;11.10;;;;;;4974609;28;20043;-91
2023/07/20 12:42:18;;;;;;;3.40;1.00;;;21.20;10.10;;;;;;5068104;28;20070;-90
2023/07/20 12:44:48;;;;;;;3.80;1.55;;;21.30;17.70;;;;;;5061741;28;20042;-89
2023/07/20 12:47:14;;;;;;;1.13;0.70;;;21.30;1.00;;;;;;4979034;28;20121;-89
2023/07/20 12:49:40;;;;;;;1.88;0.90;;;21.40;1.00;;;;;;4959354;28;20639;-90
2023/07/20 12:52:06;;;;;;;1.40;0.90;;;21.60;1.00;;;;;;4959401;28;20082;-90
2023/07/20 12:54:32;;;;;;;2.40;0.90;;;21.50;1.00;;;;;;4956195;28;20108;-89